Download
clave metar n.
Skip this Video
Loading SlideShow in 5 Seconds..
Clave METAR PowerPoint Presentation
Download Presentation
Clave METAR

Clave METAR

628 Vues Download Presentation
Télécharger la présentation

Clave METAR

- - - - - - - - - - - - - - - - - - - - - - - - - - - E N D - - - - - - - - - - - - - - - - - - - - - - - - - - -
Presentation Transcript

  1. Clave METAR Aeropuerto de Santiago año 2045

  2. Clave METAR • METAR es el nombre de la clave de un informe meteorológico aeronáutico de rutina. Los informes METAR son comunicados a intervalos de una hora, con validez de dos horas.

  3. NOSIG  Sin cambios en las próximas 2hrs. • BECMG Probabilidad de cambio. • TEMPO Temporalmente cambiando a • METAR SCEL 061200Z 18006KT 4000 HZ BKN030 24/17 Q1013 NOSIG= • METAR SCEL 061200Z 18006KT 4000 HZ BKN030 24/17 Q1013 BECMG 7000 SKC= • METAR SCEL 061200Z 18006KT 6000 SCT180 24/17 Q1013 TEMPO 3000 BR =

  4. METARcontiene la información en el orden indicado a continuación: • GRUPOS DE IDENTIFICACIÓN METAR SCEL 31300Z • VIENTO EN SUPERFICIE 18006KT • VISIBILIDAD REINANTE 4000 • TIEMPO PRESENTE HZ • NUBOSIDAD BKN030 • TEMPERATURA / PUNTO DE ROCÍO 24/17 • PRESIÓN A NIVEL ESTACIÓN Q1013 • PRONÓSTICO TENDENCIA NOSIG • METAR SCEL 061200Z 18006KT 4000 HZ BKN030 24/17 Q1013 NOSIG=

  5. GRUPOS DE IDENTIFICACIÓN • El nombre de clave del informe (METAR). • El indicador de ubicación OACI de la estación notificante, por ejemplo: SCEL (AEROPUERTO PUDAHUEL) • El día del mes y el momento de la observación, en horas y minutos UTC (tiempo universal coordinado), seguido de la letra Z. Ejemplo: • Día 06 a las 15UTC = 061500Z

  6. UTC: UNIVERSAL TIME CORDINATED. • HORARIO VERANOHORAS UTC: +3 15HRS = 18UTC • HORARIO INVIERNOHORAS  UTC: +4 15HRS = 19UTC

  7. FORMATO - VIENTO • Viento Norte, 3KT36003KT • Viento Noreste,10KT 05010KT • Viento Calma -2KT00000KT

  8. FORMATO- VISIBILIDAD • Reinante: La mayor que se tenga de acuerdo a puntos de referencia. Se codifica en METROS. Ejemplos: 5000metros: • METAR SCEL 071800Z 18006KT 5000 HZ BKN030 24/17 Q1013 NOSIG= Ilimitado: • METAR SCEL 071800Z 18006KT 9999 SCT180 24/17 Q1013 NOSIG=

  9. FORMATO-TIEMPO PRESENTE • Fenómenos observables o sensoriales

  10. BRUMA: METAR SCEL 061200Z 18006KT 4000 HZ BKN030 24/17 Q1013 NOSIG= • HUMO: METAR SCEL 061200Z 18006KT 3000 FU SKC 30/17 Q1015 NOSIG= • NIEBLA: METAR SCEL 061200Z 18006KT 0200 FG BKN003 14/14 Q1011 NOSIG= • CHUBASCO DE LLUVIA FUERTE: METAR SCEL 061200Z 18006KT 2000 +SHARA OVC150 11/18 Q1020 NOSIG=

  11. Existen algunasrestriccionescon respecto a los fenómenos meteorológicos, siendo las más importantes: • La neblina BR se notificará cuando la visibilidad quede reducida por gotitas de agua o cristales de hielo entre 1 000 metros y 5 000 metros. • La niebla FG se notificará cuando la visibilidad quede reducida por gotitas de agua o cristales de hielo a menos de 1 000 metros.

  12. FORMATO NUBOSIDAD • El cielo se divide en 8 octas • 1/8 a 2/8 notificado como FEW (nubes escasas) • 3/8 a 4/8 notificado como SCT(nubes parcial) • 5/8 a 7/8 notificado como BKN(nublado) • 8/8 notificado como OVC (cielo cubierto) • METAR SCEL 061200Z 18006KT 4000 HZ BKN030 24/17 Q1013 NOSIG= • METAR SCEL 061200Z 200006KT 4000 HZ OVC003 24/17 Q1013 NOSIG=

  13. TIPOS DE NUBES Piso bajo: Estratos, estratocumulos, cúmulos, cumulonimbus. (000-060FT) Piso medio: Altocumulo, altoestrato, niboestrato(060-180FT) Piso alto: Cirrus, cirruscumulos, cirrustratos(180-250)

  14. CAVOK • La palabra de claveCAVOKse incluirá cuando en el momento de la observación se den simultáneamente las siguientes condiciones: • a)visibilidad de 10 km o más. • b)ninguna nube por debajo de 1.500 m (5.000 pies) y ausencia de cumulonimbus. • c)ningún fenómeno meteorológico significativo.

  15. FORMATO DE CLAVE - TEMPERATURA • Las temperaturas inferiores a 0°C irán precedidas de Mpara indicar el signo menos. Ejemplo: –9,5°C figurará como M09 • Los valores de temperatura del aire y del punto de rocío de 0,5° o más se redondearán al grado entero inmediatamente superior. • Ejemplo: Temperatura del aire: 9,5°C Temperatura del punto de rocío: 3,3°C Se notificarán como sigue: 10/03

  16. FORMATO DE CLAVE - PRESIÓN • En el último grupo de la parte principal del informe figurará el valor QNH (presión barométrica a nivel de la estación) redondeado al hectopascal entero inmediatamente inferior. El grupo comenzará con la letra Q, seguida de cuatro cifras. • Ejemplo: QNH de 1025,3 hPa se cifrará como: Q1025